createdAt,value
2022-09-28T00:02:00.467Z,80.17
2022-09-28T00:04:27.654Z,80.38
2022-09-28T00:06:54.358Z,80.17
2022-09-28T00:09:21.049Z,80.27
2022-09-28T00:11:47.692Z,80.45
2022-09-28T00:14:14.497Z,80.50
2022-09-28T00:16:43.976Z,80.22
2022-09-28T00:19:12.359Z,80.32
2022-09-28T00:21:41.236Z,80.16
2022-09-28T00:24:22.994Z,80.15
2022-09-28T00:26:56.851Z,80.48
2022-09-28T00:29:32.021Z,80.47
2022-09-28T00:32:02.610Z,80.54
2022-09-28T00:34:35.183Z,80.42
2022-09-28T00:37:03.953Z,80.26
2022-09-28T00:39:31.789Z,80.33
2022-09-28T00:41:59.799Z,80.65
2022-09-28T00:44:26.362Z,80.23
2022-09-28T00:47:19.816Z,80.14
2022-09-28T00:49:54.985Z,80.34
2022-09-28T00:52:53.267Z,80.57
2022-09-28T00:55:26.998Z,80.18
2022-09-28T00:57:58.301Z,80.59
2022-09-28T01:00:25.046Z,80.43
2022-09-28T01:02:51.679Z,80.39
2022-09-28T01:05:20.585Z,80.42
2022-09-28T01:07:47.987Z,80.82
2022-09-28T01:10:15.378Z,80.67
2022-09-28T01:12:42.203Z,80.73
2022-09-28T01:15:09.632Z,81.04
2022-09-28T01:17:44.886Z,80.85
2022-09-28T01:20:41.151Z,80.89
2022-09-28T01:23:26.530Z,81.00
2022-09-28T01:26:25.424Z,80.95
2022-09-28T01:29:04.843Z,81.01
2022-09-28T01:31:34.309Z,81.17
2022-09-28T01:34:10.558Z,81.25
2022-09-28T01:36:48.722Z,81.02
2022-09-28T01:39:20.357Z,81.22
2022-09-28T01:41:51.571Z,81.06
2022-09-28T01:44:21.717Z,81.13
2022-09-28T01:46:49.872Z,81.32
2022-09-28T01:49:19.191Z,81.22
2022-09-28T01:51:55.546Z,81.01
2022-09-28T01:54:32.466Z,81.18
2022-09-28T01:57:09.631Z,81.41
2022-09-28T01:59:39.660Z,81.20
2022-09-28T02:02:22.631Z,81.10
2022-09-28T02:04:56.322Z,81.33
2022-09-28T02:07:38.794Z,81.29
2022-09-28T02:10:14.542Z,81.36
2022-09-28T02:12:47.237Z,81.12
2022-09-28T02:15:27.658Z,81.14
2022-09-28T02:17:54.887Z,81.36
2022-09-28T02:20:23.934Z,81.39
2022-09-28T02:22:56.772Z,81.42
2022-09-28T02:25:34.747Z,81.61
2022-09-28T02:28:08.383Z,81.17
2022-09-28T02:30:38.293Z,81.48
2022-09-28T02:33:13.721Z,81.38
2022-09-28T02:35:42.702Z,81.63
2022-09-28T02:38:14.084Z,81.43
2022-09-28T02:40:46.006Z,81.27
2022-09-28T02:43:23.636Z,81.31
2022-09-28T02:46:02.205Z,81.58
2022-09-28T02:48:43.643Z,81.41
2022-09-28T02:51:23.007Z,81.38
2022-09-28T02:54:26.276Z,81.54
2022-09-28T02:56:56.146Z,81.38
2022-09-28T03:00:01.259Z,81.59
2022-09-28T03:02:36.049Z,81.35
2022-09-28T03:05:29.391Z,81.33
2022-09-28T03:08:06.934Z,81.63
2022-09-28T03:11:03.224Z,81.39
2022-09-28T03:13:30.955Z,81.32
2022-09-28T03:16:16.150Z,81.45
2022-09-28T03:18:43.162Z,81.49
2022-09-28T03:21:12.086Z,81.58
2022-09-28T03:23:39.414Z,81.37
2022-09-28T03:26:08.368Z,81.30
2022-09-28T03:28:36.338Z,81.21
2022-09-28T03:31:03.097Z,81.75
2022-09-28T03:33:29.744Z,81.58
2022-09-28T03:35:56.329Z,81.47
2022-09-28T03:38:22.945Z,81.49
2022-09-28T03:41:00.845Z,81.29
2022-09-28T03:43:28.401Z,81.46
2022-09-28T03:45:56.478Z,81.42
2022-09-28T03:48:32.100Z,81.69
2022-09-28T03:51:02.163Z,81.33
2022-09-28T03:53:29.803Z,81.40
2022-09-28T03:55:56.850Z,81.38
2022-09-28T03:58:23.536Z,81.27
2022-09-28T04:00:51.518Z,81.35
2022-09-28T04:03:18.150Z,81.38
2022-09-28T04:05:52.592Z,81.32
2022-09-28T04:08:19.804Z,81.55
2022-09-28T04:10:47.217Z,81.57
2022-09-28T04:13:14.382Z,81.43
2022-09-28T04:15:41.081Z,81.43
2022-09-28T04:18:12.130Z,81.19
2022-09-28T04:20:41.572Z,81.24
2022-09-28T04:23:08.846Z,81.38
2022-09-28T04:25:39.748Z,81.55
2022-09-28T04:28:25.066Z,81.23
2022-09-28T04:30:51.714Z,81.58
2022-09-28T04:33:18.346Z,81.60
2022-09-28T04:35:45.055Z,81.62
2022-09-28T04:38:11.647Z,81.41
2022-09-28T04:40:38.284Z,81.36
2022-09-28T04:43:04.930Z,81.54
2022-09-28T04:45:31.571Z,81.38
2022-09-28T04:47:58.192Z,81.27
2022-09-28T04:50:24.775Z,81.23
2022-09-28T04:52:51.366Z,81.27
2022-09-28T04:55:17.987Z,81.51
2022-09-28T04:57:44.591Z,81.58
2022-09-28T05:00:11.831Z,81.26
2022-09-28T05:02:39.167Z,81.31
2022-09-28T05:05:06.323Z,81.13
2022-09-28T05:07:32.927Z,81.60
2022-09-28T05:10:01.613Z,81.39
2022-09-28T05:12:28.208Z,81.38
2022-09-28T05:14:54.779Z,80.96
2022-09-28T05:17:21.419Z,81.14
2022-09-28T05:19:48.066Z,81.02
2022-09-28T05:22:15.181Z,80.83
2022-09-28T05:24:41.847Z,81.14
2022-09-28T05:27:08.744Z,80.78
2022-09-28T05:29:35.380Z,81.06
2022-09-28T05:32:02.131Z,80.84
2022-09-28T05:34:29.034Z,80.77
2022-09-28T05:36:58.677Z,80.47
2022-09-28T05:39:25.296Z,80.75
2022-09-28T05:41:51.928Z,80.82
2022-09-28T05:44:21.246Z,80.81
2022-09-28T05:46:47.841Z,80.38
2022-09-28T05:49:17.427Z,80.67
2022-09-28T05:51:44.087Z,80.63
2022-09-28T05:54:10.767Z,80.42
2022-09-28T05:56:37.393Z,80.33
2022-09-28T05:59:08.597Z,80.24
2022-09-28T06:01:35.308Z,80.24
2022-09-28T06:04:03.759Z,80.52
2022-09-28T06:06:30.353Z,80.47
2022-09-28T06:08:56.961Z,80.64
2022-09-28T06:11:28.176Z,80.28
2022-09-28T06:13:58.184Z,80.11
2022-09-28T06:16:25.729Z,80.16
2022-09-28T06:18:55.292Z,80.23
2022-09-28T06:21:25.145Z,80.11
2022-09-28T06:23:53.768Z,80.14
2022-09-28T06:26:20.382Z,79.98
2022-09-28T06:28:47.235Z,79.85
2022-09-28T06:31:16.797Z,79.93
2022-09-28T06:33:43.468Z,79.84
2022-09-28T06:36:13.497Z,80.23
2022-09-28T06:38:40.151Z,80.11
2022-09-28T06:41:07.063Z,79.86
2022-09-28T06:43:35.213Z,79.95
2022-09-28T06:46:02.774Z,79.85
2022-09-28T06:48:29.746Z,79.61
2022-09-28T06:50:56.699Z,79.42
2022-09-28T06:53:27.583Z,79.54
2022-09-28T06:55:56.182Z,79.20
2022-09-28T06:58:23.309Z,79.37
2022-09-28T07:00:53.543Z,78.99
2022-09-28T07:03:22.280Z,79.36
2022-09-28T07:05:54.108Z,79.02
2022-09-28T07:08:26.067Z,79.02
2022-09-28T07:10:56.878Z,78.96
2022-09-28T07:13:46.723Z,79.23
2022-09-28T07:16:14.031Z,79.16
2022-09-28T07:18:42.240Z,78.83
2022-09-28T07:21:23.582Z,78.96
2022-09-28T07:23:54.498Z,78.94
2022-09-28T07:26:24.074Z,78.88
2022-09-28T07:28:55.907Z,78.55
2022-09-28T07:31:25.261Z,78.90
2022-09-28T07:33:52.047Z,78.70
2022-09-28T07:36:21.142Z,78.54
2022-09-28T07:38:48.077Z,78.61
2022-09-28T07:41:17.075Z,78.60
2022-09-28T07:43:43.935Z,78.48
2022-09-28T07:46:13.611Z,77.94
2022-09-28T07:48:45.892Z,77.84
2022-09-28T07:51:12.851Z,77.70
2022-09-28T07:53:41.711Z,77.59
2022-09-28T07:56:09.512Z,77.46
2022-09-28T07:58:38.138Z,77.57
2022-09-28T08:01:11.936Z,77.33
2022-09-28T08:03:42.492Z,76.86
2022-09-28T08:06:13.345Z,76.57
2022-09-28T08:08:44.663Z,76.66
2022-09-28T08:11:18.830Z,76.35
2022-09-28T08:13:46.546Z,76.42
2022-09-28T08:16:13.681Z,76.41
2022-09-28T08:18:40.437Z,76.15
2022-09-28T08:21:30.082Z,76.05
2022-09-28T08:23:56.726Z,75.62
2022-09-28T08:26:23.330Z,75.18
2022-09-28T08:28:52.559Z,75.01
2022-09-28T08:31:19.250Z,75.09
2022-09-28T08:33:45.912Z,74.77
2022-09-28T08:36:12.760Z,74.41
2022-09-28T08:38:42.617Z,74.33
2022-09-28T08:41:36.797Z,74.28
2022-09-28T08:44:15.958Z,74.10
2022-09-28T08:46:47.805Z,73.62
2022-09-28T08:49:34.703Z,72.88
2022-09-28T08:52:19.387Z,72.74
2022-09-28T08:55:20.915Z,72.71
2022-09-28T08:58:15.351Z,72.47
2022-09-28T09:00:51.406Z,72.23
2022-09-28T09:03:37.765Z,71.88
2022-09-28T09:06:10.306Z,71.45
2022-09-28T09:08:36.901Z,71.35
2022-09-28T09:11:27.061Z,71.12
2022-09-28T09:13:59.553Z,71.10
2022-09-28T09:17:10.041Z,71.11
2022-09-28T09:19:53.525Z,71.13
2022-09-28T09:22:33.236Z,71.05
2022-09-28T09:25:28.223Z,70.80
2022-09-28T09:28:31.729Z,70.96
2022-09-28T09:31:08.620Z,71.02
2022-09-28T09:34:03.435Z,71.08
2022-09-28T09:36:35.801Z,71.24
2022-09-28T09:39:24.158Z,71.22
2022-09-28T09:42:11.057Z,71.12
2022-09-28T09:44:47.246Z,71.32
2022-09-28T09:47:20.964Z,71.51
2022-09-28T09:50:13.593Z,71.30
2022-09-28T09:52:55.300Z,71.35
2022-09-28T09:55:40.754Z,71.21
2022-09-28T09:58:16.338Z,71.08
2022-09-28T10:00:47.311Z,70.71
2022-09-28T10:03:22.266Z,71.11
2022-09-28T10:05:57.921Z,71.30
2022-09-28T10:08:27.201Z,71.44
2022-09-28T10:11:08.673Z,71.14
2022-09-28T10:13:35.488Z,71.28
2022-09-28T10:16:02.575Z,71.41
2022-09-28T10:18:29.817Z,71.40
2022-09-28T10:20:56.405Z,71.01
2022-09-28T10:23:25.564Z,70.88
2022-09-28T10:25:56.889Z,70.98
2022-09-28T10:28:34.589Z,70.87
2022-09-28T10:31:21.175Z,71.09
2022-09-28T10:33:47.768Z,70.57
2022-09-28T10:36:16.167Z,70.34
2022-09-28T10:38:47.817Z,70.45
2022-09-28T10:41:16.672Z,70.52
2022-09-28T10:44:06.844Z,70.58
2022-09-28T10:46:35.347Z,70.31
2022-09-28T10:49:12.020Z,70.22
2022-09-28T10:51:51.706Z,70.12
2022-09-28T10:54:24.026Z,69.77
2022-09-28T10:56:52.672Z,69.98
2022-09-28T10:59:31.415Z,69.68
2022-09-28T11:02:19.867Z,69.78
2022-09-28T11:04:53.182Z,69.72
2022-09-28T11:07:26.485Z,69.96
2022-09-28T11:09:54.854Z,69.71
2022-09-28T11:12:45.521Z,70.08
2022-09-28T11:15:19.334Z,70.06
2022-09-28T11:17:46.309Z,70.07
2022-09-28T11:20:27.833Z,69.66
2022-09-28T11:23:00.648Z,69.85
2022-09-28T11:25:29.365Z,69.69
2022-09-28T11:27:59.180Z,69.43
2022-09-28T11:30:32.938Z,69.46
2022-09-28T11:33:33.030Z,69.22
2022-09-28T11:36:14.808Z,69.18
2022-09-28T11:38:47.485Z,69.30
2022-09-28T11:41:46.462Z,69.10
2022-09-28T11:44:17.812Z,69.09
2022-09-28T11:47:11.899Z,68.68
2022-09-28T11:50:10.554Z,68.88
2022-09-28T11:52:48.270Z,68.58
2022-09-28T11:55:27.242Z,68.72
2022-09-28T11:58:02.057Z,68.77
2022-09-28T12:00:31.183Z,68.52
2022-09-28T12:03:09.438Z,68.23
2022-09-28T12:06:13.806Z,68.41
2022-09-28T12:08:47.317Z,68.42
2022-09-28T12:11:27.711Z,68.38
2022-09-28T12:13:59.049Z,68.54
2022-09-28T12:19:49.207Z,68.09
2022-09-28T12:22:24.352Z,68.38
2022-09-28T12:24:54.518Z,68.33
2022-09-28T12:27:34.413Z,68.26
2022-09-28T12:30:19.395Z,68.06
2022-09-28T12:32:52.246Z,68.25
2022-09-28T12:35:53.393Z,68.23
2022-09-28T12:39:18.090Z,67.97
2022-09-28T12:41:55.938Z,67.80
2022-09-28T12:44:32.809Z,67.92
2022-09-28T12:47:33.442Z,67.99
2022-09-28T12:53:07.892Z,67.76
2022-09-28T12:55:37.216Z,67.28
2022-09-28T12:58:29.668Z,66.67
2022-09-28T13:01:24.223Z,66.65
2022-09-28T13:04:29.031Z,66.61
2022-09-28T13:07:27.340Z,66.65
2022-09-28T13:10:16.982Z,66.74
2022-09-28T13:12:58.045Z,66.63
2022-09-28T13:15:24.896Z,66.42
2022-09-28T13:18:11.014Z,66.12
2022-09-28T13:21:17.462Z,65.99
2022-09-28T13:23:47.343Z,65.94
2022-09-28T13:26:31.807Z,65.30
2022-09-28T13:29:05.111Z,65.63
2022-09-28T13:31:36.015Z,65.19
2022-09-28T13:34:05.150Z,65.54
2022-09-28T13:36:31.787Z,65.24
2022-09-28T13:39:00.172Z,65.17
2022-09-28T13:41:40.443Z,64.88
2022-09-28T13:44:13.267Z,64.94
2022-09-28T13:46:55.905Z,64.73
2022-09-28T13:49:41.185Z,64.57
2022-09-28T13:52:28.015Z,64.53
2022-09-28T13:55:15.783Z,64.40
2022-09-28T13:58:14.646Z,64.36
2022-09-28T14:00:53.660Z,64.54
2022-09-28T14:03:57.278Z,64.40
2022-09-28T14:06:27.064Z,64.55
2022-09-28T14:09:18.640Z,64.57
2022-09-28T14:11:56.304Z,64.43
2022-09-28T14:14:49.196Z,64.13
2022-09-28T14:17:21.680Z,64.00
2022-09-28T14:20:14.824Z,63.70
2022-09-28T14:22:50.475Z,63.81
2022-09-28T14:25:27.220Z,63.70
2022-09-28T14:27:53.766Z,63.97
2022-09-28T14:30:41.498Z,63.87
2022-09-28T14:33:28.945Z,63.77
2022-09-28T14:36:08.756Z,63.63
2022-09-28T14:39:08.762Z,63.30
2022-09-28T14:41:41.865Z,62.99
2022-09-28T14:44:14.411Z,62.88
2022-09-28T14:46:48.150Z,62.71
2022-09-28T14:49:17.647Z,62.74
2022-09-28T14:52:02.218Z,62.94
2022-09-28T14:54:45.470Z,62.58
2022-09-28T14:57:23.935Z,62.98
2022-09-28T14:59:50.861Z,62.70
2022-09-28T15:02:23.357Z,62.93
2022-09-28T15:04:54.960Z,62.98
2022-09-28T15:07:43.475Z,62.62
2022-09-28T15:10:42.126Z,62.93
2022-09-28T15:13:29.444Z,62.93
2022-09-28T15:16:10.022Z,62.77
2022-09-28T15:19:06.237Z,62.69
2022-09-28T15:21:36.579Z,62.46
2022-09-28T15:24:03.446Z,63.04
2022-09-28T15:26:33.041Z,62.86
2022-09-28T15:29:03.323Z,63.04
2022-09-28T15:31:34.870Z,62.49
2022-09-28T15:34:20.259Z,62.60
2022-09-28T15:36:47.346Z,62.75
2022-09-28T15:39:34.803Z,63.09
2022-09-28T15:42:02.509Z,62.95
2022-09-28T15:44:37.187Z,63.04
2022-09-28T15:47:11.133Z,62.98
2022-09-28T15:49:39.070Z,63.32
2022-09-28T15:52:06.076Z,63.19
2022-09-28T15:54:42.694Z,63.27
2022-09-28T15:57:38.717Z,63.81
2022-09-28T16:00:23.067Z,63.50
2022-09-28T16:03:00.509Z,63.94
2022-09-28T16:05:59.147Z,64.03
2022-09-28T16:08:49.085Z,64.62
2022-09-28T16:11:15.707Z,64.43
2022-09-28T16:14:19.518Z,64.79
2022-09-28T16:16:51.796Z,65.07
2022-09-28T16:19:36.600Z,65.51
2022-09-28T16:22:13.572Z,65.93
2022-09-28T16:24:40.288Z,66.36
2022-09-28T16:27:41.494Z,66.72
2022-09-28T16:30:16.730Z,66.71
2022-09-28T16:32:49.973Z,67.36
2022-09-28T16:35:21.654Z,67.52
2022-09-28T16:37:56.582Z,67.86
2022-09-28T16:40:23.304Z,68.09
2022-09-28T16:42:52.471Z,68.34
2022-09-28T16:45:25.867Z,68.82
2022-09-28T16:47:56.449Z,68.65
2022-09-28T16:50:24.595Z,69.08
2022-09-28T16:53:18.337Z,69.49
2022-09-28T16:55:46.720Z,69.77
2022-09-28T16:58:13.403Z,69.93
2022-09-28T17:00:43.590Z,70.04
2022-09-28T17:03:20.593Z,70.52
2022-09-28T17:05:48.143Z,70.77
2022-09-28T17:08:17.571Z,70.98
2022-09-28T17:11:14.048Z,70.84
2022-09-28T17:13:42.659Z,70.91
2022-09-28T17:16:17.977Z,71.06
2022-09-28T17:18:46.065Z,71.13
2022-09-28T17:21:19.386Z,71.27
2022-09-28T17:23:49.550Z,71.51
2022-09-28T17:26:27.823Z,71.51
2022-09-28T17:28:54.523Z,71.49
2022-09-28T17:31:21.139Z,71.55
2022-09-28T17:33:47.813Z,71.99
2022-09-28T17:36:17.203Z,72.31
2022-09-28T17:38:45.337Z,72.30
2022-09-28T17:41:19.376Z,72.50
2022-09-28T17:43:47.528Z,72.77
2022-09-28T17:46:36.251Z,72.61
2022-09-28T17:49:04.969Z,72.77
2022-09-28T17:51:34.895Z,72.94
2022-09-28T17:54:02.019Z,73.24
2022-09-28T17:56:32.198Z,73.11
2022-09-28T17:59:01.596Z,73.23
2022-09-28T18:01:33.975Z,73.01
2022-09-28T18:04:02.702Z,73.40
2022-09-28T18:06:29.459Z,73.26
2022-09-28T18:08:56.136Z,73.70
2022-09-28T18:11:22.990Z,73.50
2022-09-28T18:13:49.830Z,73.81
2022-09-28T18:16:17.609Z,74.00
2022-09-28T18:18:44.574Z,74.13
2022-09-28T18:21:11.249Z,74.29
2022-09-28T18:23:38.945Z,74.40
2022-09-28T18:26:12.068Z,74.29
2022-09-28T18:28:39.469Z,74.39
2022-09-28T18:31:10.998Z,74.35
2022-09-28T18:33:37.987Z,74.75
2022-09-28T18:36:08.690Z,74.96
2022-09-28T18:38:36.341Z,75.07
2022-09-28T18:41:17.252Z,75.03
2022-09-28T18:43:49.228Z,75.41
2022-09-28T18:46:18.303Z,75.34
2022-09-28T18:48:45.243Z,75.51
2022-09-28T18:51:12.466Z,75.91
2022-09-28T18:53:39.863Z,75.86
2022-09-28T18:56:11.779Z,75.77
2022-09-28T18:58:42.099Z,76.35
2022-09-28T19:01:29.573Z,75.83
2022-09-28T19:04:02.061Z,76.21
2022-09-28T19:06:29.186Z,76.38
2022-09-28T19:08:56.744Z,76.50
2022-09-28T19:11:24.726Z,76.31
2022-09-28T19:13:53.619Z,76.49
2022-09-28T19:16:35.610Z,76.81
2022-09-28T19:19:03.352Z,77.01
2022-09-28T19:21:30.511Z,76.92
2022-09-28T19:24:00.713Z,76.73
2022-09-28T19:26:28.615Z,76.64
2022-09-28T19:28:56.797Z,76.73
2022-09-28T19:31:24.634Z,76.56
2022-09-28T19:33:51.666Z,76.86
2022-09-28T19:36:22.497Z,77.02
2022-09-28T19:38:50.186Z,76.91
2022-09-28T19:41:39.389Z,77.14
2022-09-28T19:44:25.045Z,77.16
2022-09-28T19:46:59.487Z,76.99
2022-09-28T19:49:27.926Z,77.10
2022-09-28T19:52:12.884Z,77.52
2022-09-28T19:54:41.211Z,77.01
2022-09-28T19:57:08.791Z,77.41
2022-09-28T19:59:38.936Z,77.54
2022-09-28T20:02:07.246Z,77.08
2022-09-28T20:04:34.230Z,77.15
2022-09-28T20:07:01.138Z,77.64
2022-09-28T20:09:27.764Z,77.23
2022-09-28T20:11:54.454Z,77.30
2022-09-28T20:14:23.392Z,77.35
2022-09-28T20:16:52.798Z,77.18
2022-09-28T20:19:21.652Z,77.12
2022-09-28T20:21:49.171Z,77.33
2022-09-28T20:24:19.602Z,77.52
2022-09-28T20:27:00.601Z,77.68
2022-09-28T20:29:27.291Z,77.70
2022-09-28T20:31:53.893Z,77.45
2022-09-28T20:34:20.584Z,77.69
2022-09-28T20:36:57.949Z,77.46
2022-09-28T20:39:24.692Z,77.70
2022-09-28T20:41:51.759Z,77.29
2022-09-28T20:44:18.466Z,77.60
2022-09-28T20:46:45.320Z,77.72
2022-09-28T20:49:12.005Z,77.49
2022-09-28T20:51:38.669Z,77.79
2022-09-28T20:54:05.418Z,78.07
2022-09-28T20:56:39.605Z,77.64
2022-09-28T20:59:11.907Z,78.11
2022-09-28T21:01:40.191Z,78.23
2022-09-28T21:04:09.010Z,78.31
2022-09-28T21:06:38.200Z,78.30
2022-09-28T21:09:06.483Z,78.32
2022-09-28T21:11:35.776Z,78.07
2022-09-28T21:14:06.059Z,78.12
2022-09-28T21:16:34.387Z,78.18
2022-09-28T21:19:01.038Z,78.24
2022-09-28T21:21:28.260Z,78.11
2022-09-28T21:23:56.640Z,77.83
2022-09-28T21:26:25.576Z,78.26
2022-09-28T21:28:57.526Z,77.87
2022-09-28T21:31:29.577Z,78.19
2022-09-28T21:33:57.543Z,78.16
2022-09-28T21:36:25.011Z,77.99
2022-09-28T21:38:51.703Z,77.85
2022-09-28T21:41:18.398Z,78.45
2022-09-28T21:43:45.667Z,77.97
2022-09-28T21:46:12.527Z,78.50
2022-09-28T21:48:41.825Z,78.55
2022-09-28T21:51:15.862Z,78.52
2022-09-28T21:53:42.889Z,78.56
2022-09-28T21:56:15.068Z,78.52
2022-09-28T21:58:41.697Z,78.17
2022-09-28T22:01:20.172Z,78.53
2022-09-28T22:03:50.575Z,78.98
2022-09-28T22:06:19.837Z,79.10
2022-09-28T22:08:54.959Z,79.05
2022-09-28T22:11:23.943Z,79.12
2022-09-28T22:13:53.860Z,79.06
2022-09-28T22:16:26.667Z,78.48
2022-09-28T22:18:56.735Z,78.43
2022-09-28T22:21:32.053Z,79.04
2022-09-28T22:24:07.981Z,78.57
2022-09-28T22:26:36.813Z,79.11
2022-09-28T22:29:08.808Z,79.10
2022-09-28T22:31:38.097Z,79.05
2022-09-28T22:34:05.979Z,79.02
2022-09-28T22:36:33.065Z,79.03
2022-09-28T22:39:03.067Z,79.19
2022-09-28T22:41:30.086Z,79.24
2022-09-28T22:43:59.280Z,79.27
2022-09-28T22:46:28.531Z,78.93
2022-09-28T22:48:57.507Z,79.75
2022-09-28T22:51:25.745Z,79.24
2022-09-28T22:53:52.514Z,78.82
2022-09-28T22:56:19.458Z,79.71
2022-09-28T22:58:46.681Z,79.16
2022-09-28T23:01:18.711Z,78.94
2022-09-28T23:03:45.806Z,79.02
2022-09-28T23:06:16.680Z,78.69
2022-09-28T23:08:47.473Z,79.17
2022-09-28T23:11:14.980Z,79.35
2022-09-28T23:13:52.004Z,79.13
2022-09-28T23:16:19.438Z,79.07
2022-09-28T23:18:46.203Z,79.42
2022-09-28T23:21:17.727Z,79.26
2022-09-28T23:23:46.076Z,79.38
2022-09-28T23:26:18.431Z,79.12
2022-09-28T23:28:45.530Z,79.50
2022-09-28T23:31:17.614Z,78.62
2022-09-28T23:33:44.692Z,78.72
2022-09-28T23:36:14.253Z,78.98
2022-09-28T23:38:41.276Z,79.35
2022-09-28T23:41:10.527Z,79.25
2022-09-28T23:43:37.289Z,78.96
2022-09-28T23:46:05.005Z,79.30
2022-09-28T23:48:32.291Z,78.87
2022-09-28T23:50:59.051Z,78.89
2022-09-28T23:53:25.823Z,79.01
2022-09-28T23:55:52.566Z,79.20
2022-09-28T23:58:19.202Z,79.60
